Time;durP1;ratioP1;P1;durP2;ratioP2;P2;SDS_P1;SDS_P2;PMS_P1;PMS_P2;Temp;Humidity;BMP_temperature;BMP_pressure;BME280_temperature;BME280_humidity;BME280_pressure;Samples;Min_cycle;Max_cycle;Signal;HPM_P1;HPM_P2
2022/05/14 00:01:06;;;;;;;7.57;4.90;;;;;;;15.72;nan;-24255.34;5075785;28;20204;-66
2022/05/14 00:03:34;;;;;;;8.90;5.35;;;;;;;16.19;nan;-24268.47;5071648;28;20539;-66
2022/05/14 00:06:02;;;;;;;7.55;4.95;;;;;;;15.72;nan;-24255.34;5074201;28;20691;-67
2022/05/14 00:08:30;;;;;;;8.88;5.30;;;;;;;15.65;nan;-24253.38;5074329;28;20186;-66
2022/05/14 00:13:39;;;;;;;9.52;5.85;;;;;;;15.86;nan;-24259.38;5075553;28;20188;-66
2022/05/14 00:16:07;;;;;;;9.75;5.55;;;;;;;15.93;nan;-24261.06;5072593;28;20755;-67
2022/05/14 00:18:33;;;;;;;7.85;4.80;;;;;;;15.67;nan;-24254.06;5073812;28;20185;-67
2022/05/14 00:20:59;;;;;;;7.18;4.80;;;;;;;15.97;nan;-24262.19;5077127;28;20218;-66
2022/05/14 00:23:25;;;;;;;8.93;5.40;;;;;;;15.76;nan;-24256.47;5074348;28;20178;-66
2022/05/14 00:25:51;;;;;;;12.13;5.00;;;;;;;15.53;nan;-24250.03;5071898;28;20238;-66
2022/05/14 00:28:17;;;;;;;6.63;4.45;;;;;;;15.61;nan;-24252.25;5079172;28;21356;-66
2022/05/14 00:30:44;;;;;;;9.65;4.75;;;;;;;15.66;nan;-24253.66;5077898;28;20178;-68
2022/05/14 00:33:09;;;;;;;7.28;4.63;;;;;;;15.60;nan;-24252.13;5075380;28;20174;-66
2022/05/14 00:35:36;;;;;;;9.48;5.68;;;;;;;15.45;nan;-24247.91;5076910;28;20202;-67
2022/05/14 00:38:01;;;;;;;7.15;5.03;;;;;;;15.73;nan;-24255.75;5075195;28;20180;-64
2022/05/14 00:40:37;;;;;;;9.15;5.22;;;;;;;15.68;nan;-24254.34;5073916;28;20193;-65
2022/05/14 00:43:03;;;;;;;9.55;5.15;;;;;;;15.62;nan;-24252.69;5075826;28;20226;-65
2022/05/14 00:45:31;;;;;;;8.65;4.97;;;;;;;15.56;nan;-24250.84;5079456;28;20238;-66
2022/05/14 00:47:59;;;;;;;9.07;5.43;;;;;;;15.36;nan;-24245.53;5079097;28;20169;-65
2022/05/14 00:50:34;;;;;;;5.95;4.70;;;;;;;15.36;nan;-24245.53;5077147;28;20177;-66
2022/05/14 00:53:12;;;;;;;9.55;5.38;;;;;;;15.68;nan;-24254.34;5080426;28;20185;-66
2022/05/14 00:55:39;;;;;;;9.52;5.72;;;;;;;15.27;nan;-24242.88;5072143;28;20692;-65
2022/05/14 00:58:07;;;;;;;11.40;5.70;;;;;;;15.58;nan;-24251.56;5070419;28;20178;-66
2022/05/14 01:00:32;;;;;;;10.23;5.15;;;;;;;15.28;nan;-24243.28;5069418;28;20186;-67
2022/05/14 01:02:58;;;;;;;8.55;5.07;;;;;;;15.47;nan;-24248.47;5067692;28;21492;-66
2022/05/14 01:05:24;;;;;;;9.18;5.00;;;;;;;15.49;nan;-24249.03;5069005;28;20652;-67
2022/05/14 01:07:52;;;;;;;8.70;5.18;;;;;;;15.40;nan;-24246.50;5068057;28;20619;-67
2022/05/14 01:10:21;;;;;;;8.70;5.07;;;;;;;15.22;nan;-24241.59;5071413;28;20166;-67
2022/05/14 01:13:00;;;;;;;8.68;5.60;;;;;;;15.34;nan;-24244.97;5072375;28;20174;-66
2022/05/14 01:15:41;;;;;;;9.70;5.95;;;;;;;15.43;nan;-24247.50;5069947;28;20216;-66
2022/05/14 01:18:06;;;;;;;7.30;4.93;;;;;;;15.20;nan;-24240.91;5072557;28;20177;-64
2022/05/14 01:20:35;;;;;;;8.38;5.20;;;;;;;15.36;nan;-24245.38;5069309;28;20228;-68
2022/05/14 01:23:29;;;;;;;8.98;4.93;;;;;;;15.34;nan;-24244.97;5070023;28;20268;-66
2022/05/14 01:26:29;;;;;;;7.68;5.00;;;;;;;15.29;nan;-24243.44;5069779;28;20269;-67
2022/05/14 01:28:57;;;;;;;8.52;5.28;;;;;;;14.91;nan;-24232.94;5069227;28;20181;-67
2022/05/14 01:31:23;;;;;;;10.43;5.18;;;;;;;15.11;nan;-24238.38;5069506;28;21969;-67
2022/05/14 01:33:49;;;;;;;7.63;5.30;;;;;;;14.44;nan;-24219.88;5070826;28;20575;-67
2022/05/14 01:36:14;;;;;;;8.68;4.75;;;;;;;14.71;nan;-24227.31;5070304;28;20226;-68
2022/05/14 01:38:40;;;;;;;10.43;5.82;;;;;;;14.95;nan;-24234.03;5069438;28;20182;-68
2022/05/14 01:41:06;;;;;;;8.73;5.32;;;;;;;14.85;nan;-24231.38;5072938;28;20178;-67
2022/05/14 01:43:31;;;;;;;8.25;5.28;;;;;;;14.82;nan;-24230.41;5074236;28;20706;-65
2022/05/14 01:45:58;;;;;;;9.10;5.47;;;;;;;14.57;nan;-24223.53;5072947;28;20208;-67
2022/05/14 01:48:23;;;;;;;7.65;5.15;;;;;;;14.32;nan;-24216.66;5073260;28;20185;-68
2022/05/14 01:50:49;;;;;;;10.25;5.22;;;;;;;14.67;nan;-24226.34;5071778;28;20223;-68
2022/05/14 01:53:14;;;;;;;8.23;5.10;;;;;;;14.66;nan;-24225.91;5066405;28;20182;-67
2022/05/14 01:55:39;;;;;;;8.98;5.63;;;;;;;13.76;nan;-24200.94;5068187;28;20221;-66
2022/05/14 01:58:36;;;;;;;7.35;5.03;;;;;;;14.95;nan;-24234.03;5067734;28;20211;-67
2022/05/14 02:00:52;;;;;;;8.43;5.13;;;;;;;14.99;nan;-24235.31;5071202;28;20567;-68
2022/05/14 02:03:18;;;;;;;8.43;5.57;;;;;;;15.04;nan;-24236.72;5070143;28;20185;-67
2022/05/14 02:05:43;;;;;;;8.65;5.20;;;;;;;15.03;nan;-24236.28;5069667;28;20960;-67
2022/05/14 02:08:09;;;;;;;8.13;5.10;;;;;;;14.37;nan;-24217.94;5069066;28;20273;-67
2022/05/14 02:10:34;;;;;;;9.05;5.20;;;;;;;14.89;nan;-24232.38;5070320;28;20178;-67
2022/05/14 02:13:00;;;;;;;8.52;5.40;;;;;;;14.62;nan;-24224.94;5069582;28;20185;-67
2022/05/14 02:15:25;;;;;;;8.93;5.32;;;;;;;14.89;nan;-24232.50;5069830;28;20193;-66
2022/05/14 02:17:51;;;;;;;7.20;5.13;;;;;;;14.91;nan;-24232.94;5071914;28;20223;-67
2022/05/14 02:20:16;;;;;;;8.82;5.20;;;;;;;14.67;nan;-24226.19;5070079;28;20185;-67
2022/05/14 02:22:42;;;;;;;8.65;5.90;;;;;;;14.57;nan;-24223.53;5070388;28;20720;-66
2022/05/14 02:25:11;;;;;;;8.52;5.38;;;;;;;14.50;nan;-24221.72;5067748;28;20265;-67
2022/05/14 02:27:38;;;;;;;7.82;5.13;;;;;;;14.81;nan;-24230.25;5070670;28;20188;-68
2022/05/14 02:30:05;;;;;;;9.13;5.13;;;;;;;14.80;nan;-24229.84;5076276;28;20178;-68
2022/05/14 02:32:56;;;;;;;8.15;5.55;;;;;;;14.86;nan;-24231.53;5075152;28;20243;-65
2022/05/14 02:35:21;;;;;;;9.63;5.57;;;;;;;14.73;nan;-24228.03;5069154;28;20582;-67
2022/05/14 02:37:46;;;;;;;9.40;5.63;;;;;;;14.83;nan;-24230.81;5071655;28;20174;-68
2022/05/14 02:40:12;;;;;;;9.20;5.35;;;;;;;14.78;nan;-24229.41;5068491;28;20166;-67
2022/05/14 02:42:38;;;;;;;10.45;5.30;;;;;;;14.83;nan;-24230.81;5069483;28;20182;-65
2022/05/14 02:45:04;;;;;;;10.00;5.35;;;;;;;14.52;nan;-24222.28;5067348;28;20704;-65
2022/05/14 02:47:30;;;;;;;9.90;5.80;;;;;;;14.28;nan;-24215.53;5071186;28;20280;-66
2022/05/14 02:49:56;;;;;;;8.23;5.15;;;;;;;14.33;nan;-24216.94;5069904;28;20174;-67
2022/05/14 02:52:23;;;;;;;8.50;5.38;;;;;;;14.42;nan;-24219.31;5071113;28;20200;-66
2022/05/14 02:54:49;;;;;;;10.93;5.55;;;;;;;14.56;nan;-24223.41;5072181;28;20643;-67
2022/05/14 02:57:16;;;;;;;9.50;5.82;;;;;;;14.53;nan;-24222.56;5077723;28;20679;-67
2022/05/14 02:59:41;;;;;;;12.00;6.57;;;;;;;14.22;nan;-24213.84;5073831;28;20214;-67
2022/05/14 03:02:07;;;;;;;7.72;5.25;;;;;;;14.52;nan;-24222.28;5072458;28;20273;-66
2022/05/14 03:04:38;;;;;;;7.65;5.70;;;;;;;14.50;nan;-24221.56;5066919;28;20692;-67
2022/05/14 03:07:09;;;;;;;8.68;5.10;;;;;;;14.24;nan;-24214.28;5067447;28;20184;-64
2022/05/14 03:09:36;;;;;;;8.00;5.57;;;;;;;14.37;nan;-24217.94;5067467;28;20181;-66
2022/05/14 03:12:02;;;;;;;8.20;5.65;;;;;;;14.74;nan;-24228.16;5071657;28;20654;-66
2022/05/14 03:14:27;;;;;;;8.68;5.22;;;;;;;15.09;nan;-24237.97;5071736;28;20555;-68
2022/05/14 03:16:53;;;;;;;8.48;5.22;;;;;;;15.55;nan;-24250.72;5072012;28;20197;-66
2022/05/14 03:19:18;;;;;;;8.93;5.57;;;;;;;15.69;nan;-24254.50;5070258;28;20275;-67
2022/05/14 03:21:44;;;;;;;7.90;4.90;;;;;;;16.10;nan;-24265.97;5073322;28;20303;-68
2022/05/14 03:24:10;;;;;;;7.45;4.78;;;;;;;16.94;nan;-24289.03;5070740;28;20242;-67
2022/05/14 03:26:37;;;;;;;8.48;5.55;;;;;;;17.59;nan;-24307.03;5071784;28;20185;-68
2022/05/14 03:29:03;;;;;;;8.27;5.13;;;;;;;18.28;nan;-24326.00;5072309;28;20177;-66
2022/05/14 03:31:29;;;;;;;7.53;4.93;;;;;;;18.47;nan;-24331.44;5072450;28;20503;-67
2022/05/14 03:33:54;;;;;;;7.97;4.82;;;;;;;19.20;nan;-24351.47;5074900;28;20189;-67
2022/05/14 03:36:20;;;;;;;7.53;4.68;;;;;;;19.92;nan;-24371.22;5077753;28;20206;-66
2022/05/14 03:38:45;;;;;;;7.40;4.97;;;;;;;20.62;nan;-24390.41;5075500;28;20189;-67
2022/05/14 03:41:11;;;;;;;7.55;4.40;;;;;;;20.88;nan;-24397.47;5075025;28;20193;-69
2022/05/14 03:43:37;;;;;;;6.28;4.28;;;;;;;21.65;nan;-24418.69;5074965;28;20178;-66
2022/05/14 03:46:02;;;;;;;6.65;4.40;;;;;;;22.24;nan;-24434.88;5076266;28;20205;-67
2022/05/14 03:48:28;;;;;;;6.50;4.38;;;;;;;23.02;nan;-24456.06;5074290;28;20665;-68
2022/05/14 03:50:53;;;;;;;7.20;4.57;;;;;;;;;;5076257;28;20181;-66
2022/05/14 03:53:19;;;;;;;6.55;4.68;;;;;;;23.92;nan;-24480.78;5072481;28;20257;-66
2022/05/14 03:55:45;;;;;;;7.05;4.43;;;;;;;24.52;nan;-24497.03;5071530;28;20201;-65
2022/05/14 03:58:11;;;;;;;7.32;4.80;;;;;;;24.74;nan;-24503.09;5075673;28;20548;-66
2022/05/14 04:00:38;;;;;;;7.70;4.47;;;;;;;24.99;nan;-24509.84;5079922;28;20264;-67
2022/05/14 04:03:03;;;;;;;6.03;4.18;;;;;;;25.59;nan;-24526.09;5075445;28;20173;-67
2022/05/14 04:05:29;;;;;;;8.02;5.13;;;;;;;26.39;nan;-24547.97;5076448;28;20181;-66
2022/05/14 04:07:55;;;;;;;6.82;4.53;;;;;;;26.57;nan;-24552.75;5074766;28;20572;-68
2022/05/14 04:10:20;;;;;;;7.35;4.28;;;;;;;27.17;nan;-24569.22;5069661;28;20177;-67
2022/05/14 04:12:46;;;;;;;6.50;4.30;;;;;;;27.42;nan;-24575.94;5068559;28;20695;-68
2022/05/14 04:15:14;;;;;;;7.28;4.47;;;;;;;27.58;nan;-24580.19;5071352;28;21211;-68
2022/05/14 04:17:40;;;;;;;6.32;4.47;;;;;;;27.80;nan;-24586.09;5069106;28;20255;-67
2022/05/14 04:20:06;;;;;;;5.80;4.03;;;;;;;27.82;nan;-24586.63;5071544;28;20190;-68
2022/05/14 04:22:32;;;;;;;5.97;4.40;;;;;;;27.56;nan;-24579.78;5075493;28;20615;-68
2022/05/14 04:24:58;;;;;;;6.63;4.18;;;;;;;27.28;nan;-24571.97;5076571;28;20657;-67
2022/05/14 04:27:23;;;;;;;5.90;4.20;;;;;;;27.12;nan;-24567.72;5077269;28;20194;-68
2022/05/14 04:29:48;;;;;;;7.32;4.45;;;;;;;26.20;nan;-24542.72;5076772;28;20178;-68
2022/05/14 04:32:14;;;;;;;6.15;4.18;;;;;;;26.05;nan;-24538.59;5072747;28;20182;-68
2022/05/14 04:34:40;;;;;;;6.32;4.28;;;;;;;25.63;nan;-24527.19;5074635;28;20186;-68
2022/05/14 04:37:06;;;;;;;6.78;4.47;;;;;;;25.37;nan;-24520.19;5073138;28;20216;-69
2022/05/14 04:39:34;;;;;;;6.22;4.50;;;;;;;25.33;nan;-24519.22;5073406;28;20190;-68
2022/05/14 04:42:00;;;;;;;7.45;4.63;;;;;;;25.10;nan;-24512.88;5072783;28;20261;-67
2022/05/14 04:44:31;;;;;;;6.45;4.47;;;;;;;25.05;nan;-24511.50;5073530;28;20189;-67
2022/05/14 04:46:57;;;;;;;6.20;4.15;;;;;;;25.20;nan;-24515.63;5073202;28;20167;-68
2022/05/14 04:49:23;;;;;;;4.97;3.83;;;;;;;25.21;nan;-24515.78;5073474;28;20184;-69
2022/05/14 04:51:49;;;;;;;8.52;4.95;;;;;;;25.52;nan;-24524.44;5073136;28;20204;-69
2022/05/14 04:54:15;;;;;;;5.90;4.30;;;;;;;24.92;nan;-24508.06;5072635;28;20769;-69
2022/05/14 04:56:41;;;;;;;5.35;4.15;;;;;;;24.95;nan;-24508.91;5072703;28;20201;-68
2022/05/14 04:59:07;;;;;;;7.10;4.60;;;;;;;24.75;nan;-24503.38;5073188;28;20171;-68
2022/05/14 05:01:33;;;;;;;9.27;4.72;;;;;;;24.23;nan;-24489.06;5072931;28;20170;-66
2022/05/14 05:03:58;;;;;;;10.05;5.10;;;;;;;24.01;nan;-24483.13;5073044;28;20178;-67
2022/05/14 05:06:24;;;;;;;9.10;5.30;;;;;;;23.64;nan;-24473.19;5073049;28;20239;-66
2022/05/14 05:08:52;;;;;;;7.88;4.25;;;;;;;23.99;nan;-24482.56;5072578;28;20532;-66
2022/05/14 05:11:26;;;;;;;6.20;4.22;;;;;;;24.45;nan;-24495.25;5072590;28;20212;-68
2022/05/14 05:13:51;;;;;;;6.13;4.32;;;;;;;24.68;nan;-24501.47;5073158;28;20235;-67
2022/05/14 05:16:17;;;;;;;6.38;4.45;;;;;;;24.68;nan;-24501.31;5072368;28;20194;-67
2022/05/14 05:18:42;;;;;;;7.53;4.15;;;;;;;24.62;nan;-24499.94;5072560;28;20260;-70
2022/05/14 05:21:08;;;;;;;5.10;3.75;;;;;;;24.38;nan;-24493.19;5072521;28;20176;-70
2022/05/14 05:23:33;;;;;;;6.75;4.28;;;;;;;24.17;nan;-24487.53;5072333;28;20605;-70
2022/05/14 05:25:59;;;;;;;5.93;4.15;;;;;;;23.86;nan;-24479.13;5072859;28;20186;-69
2022/05/14 05:28:26;;;;;;;6.57;4.45;;;;;;;23.33;nan;-24464.63;5071993;28;20184;-68
2022/05/14 05:30:52;;;;;;;6.60;4.53;;;;;;;23.44;nan;-24467.66;5072279;28;20166;-68
2022/05/14 05:33:22;;;;;;;6.22;4.65;;;;;;;23.17;nan;-24460.19;5071228;28;20182;-67
2022/05/14 05:35:48;;;;;;;8.00;4.55;;;;;;;22.69;nan;-24447.06;4496021;28;22818;-68
2022/05/14 05:38:14;;;;;;;5.78;4.25;;;;;;;22.62;nan;-24445.13;4790664;28;20296;-70
2022/05/14 05:40:39;;;;;;;7.57;4.70;;;;;;;22.75;nan;-24448.88;5070634;28;20181;-68
2022/05/14 05:43:09;;;;;;;8.13;4.80;;;;;;;22.46;nan;-24440.84;5104546;28;20186;-71
2022/05/14 05:45:36;;;;;;;6.90;4.63;;;;;;;22.63;nan;-24445.41;5074095;28;20186;-68
2022/05/14 05:48:02;;;;;;;8.45;4.78;;;;;;;22.47;nan;-24441.13;5071964;28;20192;-71
2022/05/14 05:50:28;;;;;;;7.45;4.15;;;;;;;22.55;nan;-24443.34;5071562;28;20257;-71
2022/05/14 05:52:54;;;;;;;5.80;3.92;;;;;;;22.47;nan;-24441.25;5071335;28;20181;-68
2022/05/14 05:58:03;;;;;;;6.10;3.90;;;;;;;22.19;nan;-24433.38;5071901;28;20265;-68
2022/05/14 06:00:30;;;;;;;5.82;4.00;;;;;;;22.46;nan;-24440.84;5071873;28;20166;-69
2022/05/14 06:02:56;;;;;;;6.07;4.20;;;;;;;22.25;nan;-24435.16;5071637;28;20170;-68
2022/05/14 06:05:22;;;;;;;6.43;4.05;;;;;;;22.62;nan;-24445.25;5072246;28;20181;-68
2022/05/14 06:07:48;;;;;;;6.82;4.07;;;;;;;22.74;nan;-24448.59;5071963;28;20621;-68
2022/05/14 06:10:18;;;;;;;5.45;3.83;;;;;;;23.27;nan;-24463.09;5072250;28;20184;-68
2022/05/14 06:12:43;;;;;;;5.93;4.20;;;;;;;23.85;nan;-24478.69;5076458;28;20578;-67
2022/05/14 06:15:11;;;;;;;5.30;3.90;;;;;;;24.22;nan;-24488.91;5069991;28;20174;-69
2022/05/14 06:17:38;;;;;;;6.28;3.92;;;;;;;24.58;nan;-24498.84;5073870;28;20266;-67
2022/05/14 06:20:05;;;;;;;6.10;4.47;;;;;;;24.85;nan;-24506.13;5069956;28;20188;-69
2022/05/14 06:22:30;;;;;;;6.45;4.00;;;;;;;24.79;nan;-24504.34;5073881;28;20186;-68
2022/05/14 06:24:56;;;;;;;6.75;4.32;;;;;;;25.37;nan;-24520.31;5071950;28;20588;-68
2022/05/14 06:27:22;;;;;;;7.43;4.40;;;;;;;25.24;nan;-24516.75;5076193;28;20178;-67
2022/05/14 06:29:47;;;;;;;5.88;3.92;;;;;;;25.32;nan;-24518.94;5077177;28;20170;-67
2022/05/14 06:32:13;;;;;;;4.82;3.88;;;;;;;25.43;nan;-24521.84;5075543;28;20200;-68
2022/05/14 06:34:38;;;;;;;5.53;3.55;;;;;;;25.57;nan;-24525.56;5071363;28;20185;-67
2022/05/14 06:37:04;;;;;;;5.47;4.00;;;;;;;25.35;nan;-24519.78;5074735;28;20208;-66
2022/05/14 06:39:29;;;;;;;4.82;3.72;;;;;;;24.99;nan;-24509.84;5079329;28;20184;-67
2022/05/14 06:41:57;;;;;;;5.50;3.90;;;;;;;25.53;nan;-24524.72;5078430;28;20216;-68
2022/05/14 06:44:23;;;;;;;5.60;4.30;;;;;;;25.55;nan;-24525.13;5071126;28;20182;-68
2022/05/14 06:46:48;;;;;;;6.10;3.88;;;;;;;25.56;nan;-24525.41;5076722;28;20618;-68
2022/05/14 06:49:13;;;;;;;5.32;3.90;;;;;;;25.59;nan;-24526.25;5078366;28;20173;-67
2022/05/14 06:51:40;;;;;;;5.78;4.25;;;;;;;25.95;nan;-24536.13;5079357;28;20182;-65
2022/05/14 06:54:08;;;;;;;7.30;4.65;;;;;;;25.61;nan;-24526.66;5072046;28;20241;-66
2022/05/14 06:56:38;;;;;;;6.80;4.13;;;;;;;25.79;nan;-24531.75;5075897;28;20194;-68
2022/05/14 06:59:04;;;;;;;5.97;4.38;;;;;;;25.79;nan;-24531.75;5073041;28;20174;-68
2022/05/14 07:01:30;;;;;;;5.70;4.20;;;;;;;26.00;nan;-24537.38;5075004;28;20158;-67
2022/05/14 07:06:52;;;;;;;5.70;4.20;;;;;;;26.11;nan;-24540.25;5072029;28;20206;-66
2022/05/14 07:09:23;;;;;;;5.07;4.20;;;;;;;26.30;nan;-24545.63;5078540;28;20706;-68
2022/05/14 07:11:51;;;;;;;6.72;4.60;;;;;;;26.36;nan;-24547.28;5072668;28;20184;-68
2022/05/14 07:14:17;;;;;;;6.35;4.70;;;;;;;26.33;nan;-24546.44;5076473;28;20170;-68
2022/05/14 07:16:44;;;;;;;7.50;4.97;;;;;;;26.36;nan;-24547.13;5076458;28;20206;-67
2022/05/14 07:19:11;;;;;;;8.85;4.85;;;;;;;26.48;nan;-24550.28;5073163;28;20520;-68
2022/05/14 07:21:39;;;;;;;17.77;6.22;;;;;;;26.99;nan;-24564.16;5074621;28;20552;-68
2022/05/14 07:24:07;;;;;;;6.85;4.88;;;;;;;27.11;nan;-24567.59;5073966;28;20186;-68
2022/05/14 07:26:35;;;;;;;7.68;4.70;;;;;;;27.23;nan;-24570.88;5073846;28;20184;-67
2022/05/14 07:29:04;;;;;;;7.50;5.57;;;;;;;27.18;nan;-24569.38;5073013;28;20687;-67
2022/05/14 07:31:30;;;;;;;7.50;5.18;;;;;;;27.58;nan;-24580.19;5072749;28;20269;-68
2022/05/14 07:33:55;;;;;;;9.02;4.70;;;;;;;27.77;nan;-24585.41;5074222;28;20696;-68
2022/05/14 07:36:25;;;;;;;7.43;5.07;;;;;;;28.24;nan;-24598.00;5074088;28;20186;-68
2022/05/14 07:38:52;;;;;;;8.18;4.95;;;;;;;28.71;nan;-24610.88;5074011;28;20181;-67
2022/05/14 07:41:17;;;;;;;7.53;5.20;;;;;;;28.96;nan;-24617.69;5073937;28;20162;-68
2022/05/14 07:43:49;;;;;;;7.65;4.72;;;;;;;29.10;nan;-24621.38;5074273;28;20686;-68
2022/05/14 07:46:23;;;;;;;6.45;4.28;;;;;;;28.52;nan;-24605.66;5074325;28;20161;-67
2022/05/14 07:48:51;;;;;;;6.88;4.22;;;;;;;28.13;nan;-24595.00;5074053;28;20158;-67
2022/05/14 07:51:17;;;;;;;5.68;3.95;;;;;;;27.31;nan;-24572.78;5073902;28;20690;-67
2022/05/14 07:53:42;;;;;;;6.78;4.57;;;;;;;27.58;nan;-24580.19;5073461;28;20213;-66
2022/05/14 07:56:09;;;;;;;6.20;4.60;;;;;;;28.24;nan;-24598.13;5072797;28;20664;-66
2022/05/14 07:58:36;;;;;;;6.28;4.32;;;;;;;28.41;nan;-24602.66;5073787;28;20231;-66
2022/05/14 08:01:02;;;;;;;5.90;4.10;;;;;;;27.95;nan;-24590.34;5073559;28;20304;-66
2022/05/14 08:03:28;;;;;;;6.75;4.55;;;;;;;27.14;nan;-24568.28;5073428;28;20668;-67
2022/05/14 08:05:54;;;;;;;7.55;4.50;;;;;;;26.34;nan;-24546.59;5073552;28;20246;-66
2022/05/14 08:08:21;;;;;;;5.50;4.15;;;;;;;26.64;nan;-24554.69;5073146;28;20185;-68
2022/05/14 08:10:49;;;;;;;7.80;4.70;;;;;;;26.62;nan;-24554.28;5073542;28;20170;-68
2022/05/14 08:13:17;;;;;;;6.65;4.55;;;;;;;26.62;nan;-24554.28;5073641;28;20165;-67
2022/05/14 08:15:43;;;;;;;6.13;4.13;;;;;;;26.46;nan;-24549.75;5071960;28;20668;-67
2022/05/14 08:18:09;;;;;;;6.47;4.00;;;;;;;26.27;nan;-24544.78;5073054;28;20178;-67
2022/05/14 08:20:35;;;;;;;6.45;4.55;;;;;;;26.30;nan;-24545.63;5072892;28;20188;-66
2022/05/14 08:25:47;;;;;;;7.80;4.30;;;;;;;26.45;nan;-24549.47;5076982;28;20184;-67
2022/05/14 08:28:12;;;;;;;6.78;4.40;;;;;;;26.12;nan;-24540.69;5073093;28;20178;-67
2022/05/14 08:30:37;;;;;;;6.63;4.22;;;;;;;26.06;nan;-24539.03;5073203;28;20227;-67
2022/05/14 08:33:04;;;;;;;6.57;3.88;;;;;;;25.92;nan;-24535.31;5073013;28;20550;-67
2022/05/14 08:35:31;;;;;;;7.65;4.80;;;;;;;25.75;nan;-24530.66;5073293;28;20178;-67
2022/05/14 08:37:57;;;;;;;5.90;3.92;;;;;;;25.65;nan;-24527.75;5114085;27;20208;-67
2022/05/14 08:40:33;;;;;;;5.43;4.10;;;;;;;25.63;nan;-24527.19;5074975;28;20615;-68
2022/05/14 08:43:06;;;;;;;5.68;4.07;;;;;;;25.14;nan;-24514.00;5075174;28;20207;-68
2022/05/14 08:45:36;;;;;;;7.95;4.70;;;;;;;24.89;nan;-24507.25;5063970;28;20231;-69
2022/05/14 08:48:23;;;;;;;8.40;5.28;;;;;;;25.20;nan;-24515.50;5079382;28;20190;-67
2022/05/14 08:51:04;;;;;;;6.22;4.45;;;;;;;24.55;nan;-24498.00;5072758;28;20178;-68
2022/05/14 08:53:32;;;;;;;6.47;4.88;;;;;;;24.97;nan;-24509.44;5052557;28;20600;-68
2022/05/14 08:56:13;;;;;;;5.80;3.95;;;;;;;24.61;nan;-24499.66;5059345;28;20193;-68
2022/05/14 08:58:47;;;;;;;5.63;4.18;;;;;;;24.18;nan;-24487.81;5080023;28;20695;-67
2022/05/14 09:01:18;;;;;;;6.05;4.20;;;;;;;23.38;nan;-24465.88;5072789;28;20173;-67
2022/05/14 09:03:44;;;;;;;6.45;3.95;;;;;;;23.05;nan;-24456.88;5075245;28;20174;-67
2022/05/14 09:06:10;;;;;;;5.13;3.45;;;;;;;23.14;nan;-24459.50;5071290;28;20662;-67
2022/05/14 09:08:36;;;;;;;5.45;3.50;;;;;;;23.07;nan;-24457.44;5074109;28;20189;-69
2022/05/14 09:11:10;;;;;;;6.40;3.67;;;;;;;22.76;nan;-24449.00;5074031;28;20953;-69
2022/05/14 09:13:45;;;;;;;5.05;3.40;;;;;;;22.77;nan;-24449.41;5071558;28;20577;-69
2022/05/14 09:16:36;;;;;;;5.07;3.53;;;;;;;23.25;nan;-24462.41;5079395;28;20194;-67
2022/05/14 09:19:15;;;;;;;5.53;3.35;;;;;;;23.62;nan;-24472.50;5072917;28;20277;-68
2022/05/14 09:21:50;;;;;;;5.05;3.53;;;;;;;23.70;nan;-24474.84;5075617;28;20186;-68
2022/05/14 09:24:26;;;;;;;4.78;3.63;;;;;;;23.53;nan;-24470.16;5055520;28;20182;-69
2022/05/14 09:26:56;;;;;;;5.43;3.75;;;;;;;23.33;nan;-24464.63;5071945;28;20246;-68
2022/05/14 09:29:27;;;;;;;5.18;3.60;;;;;;;23.74;nan;-24475.94;5071653;28;20182;-67
2022/05/14 09:32:00;;;;;;;5.50;4.18;;;;;;;23.77;nan;-24476.63;5072066;28;20178;-69
2022/05/14 09:34:28;;;;;;;4.60;3.42;;;;;;;23.44;nan;-24467.53;5069426;28;20174;-69
2022/05/14 09:37:00;;;;;;;5.43;3.60;;;;;;;23.47;nan;-24468.34;5071679;28;20206;-70
2022/05/14 09:39:26;;;;;;;5.05;3.35;;;;;;;23.18;nan;-24460.47;5074004;28;20178;-66
2022/05/14 09:41:56;;;;;;;4.28;3.33;;;;;;;22.98;nan;-24455.09;5071577;28;20506;-68
2022/05/14 09:44:29;;;;;;;6.07;3.90;;;;;;;22.98;nan;-24454.94;5071651;28;20170;-67
2022/05/14 09:47:07;;;;;;;6.38;3.85;;;;;;;23.07;nan;-24457.44;5071145;28;20511;-70
2022/05/14 09:49:32;;;;;;;4.22;3.17;;;;;;;23.00;nan;-24455.50;5072460;28;20231;-68
2022/05/14 09:52:05;;;;;;;5.30;3.70;;;;;;;22.98;nan;-24454.94;5076311;28;20629;-68
2022/05/14 09:54:45;;;;;;;5.15;3.28;;;;;;;22.75;nan;-24448.88;5071859;28;20673;-69
2022/05/14 09:57:25;;;;;;;5.03;3.30;;;;;;;22.52;nan;-24442.38;5071499;28;20217;-67
2022/05/14 09:59:57;;;;;;;5.47;3.95;;;;;;;22.18;nan;-24433.09;5071826;28;20170;-67
2022/05/14 10:02:44;;;;;;;6.13;3.67;;;;;;;22.07;nan;-24430.19;5071433;28;20178;-66
2022/05/14 10:05:21;;;;;;;4.88;3.55;;;;;;;21.99;nan;-24427.97;5071604;28;20178;-66
2022/05/14 10:07:53;;;;;;;4.40;3.40;;;;;;;21.92;nan;-24426.03;5071561;28;20164;-67
2022/05/14 10:10:57;;;;;;;4.45;3.58;;;;;;;22.07;nan;-24430.03;5071956;28;20711;-67
2022/05/14 10:13:35;;;;;;;5.65;3.58;;;;;;;21.86;nan;-24424.50;5056117;28;20984;-67
2022/05/14 10:16:15;;;;;;;5.15;3.38;;;;;;;22.15;nan;-24432.25;5072762;28;20205;-68
2022/05/14 10:19:11;;;;;;;6.68;4.20;;;;;;;22.01;nan;-24428.53;5071754;28;20189;-69
2022/05/14 10:21:45;;;;;;;6.60;4.10;;;;;;;22.19;nan;-24433.50;5075204;28;20250;-71
2022/05/14 10:27:19;;;;;;;4.93;3.67;;;;;;;22.37;nan;-24438.34;5073077;28;20767;-67
2022/05/14 10:30:17;;;;;;;5.35;3.90;;;;;;;22.45;nan;-24440.56;5071322;28;20193;-68
2022/05/14 10:32:51;;;;;;;4.90;3.85;;;;;;;22.38;nan;-24438.75;5058047;28;20213;-67
2022/05/14 10:35:24;;;;;;;5.22;3.20;;;;;;;22.51;nan;-24442.09;5071276;28;20184;-69
2022/05/14 10:37:53;;;;;;;4.68;3.40;;;;;;;22.66;nan;-24446.38;5069918;28;20204;-66
2022/05/14 10:40:23;;;;;;;5.13;3.03;;;;;;;22.86;nan;-24451.91;5070985;28;20169;-68
2022/05/14 10:43:01;;;;;;;4.20;3.30;;;;;;;23.25;nan;-24462.56;5070977;28;20235;-68
2022/05/14 10:45:40;;;;;;;8.07;4.05;;;;;;;23.29;nan;-24463.66;5071409;28;20165;-68
2022/05/14 10:48:22;;;;;;;4.32;3.25;;;;;;;24.13;nan;-24486.44;5075679;28;20235;-66
2022/05/14 10:50:47;;;;;;;4.30;3.13;;;;;;;24.31;nan;-24491.41;5070972;28;20265;-68
2022/05/14 10:53:13;;;;;;;3.40;2.60;;;;;;;24.00;nan;-24482.84;5072887;28;20268;-68
2022/05/14 10:55:56;;;;;;;4.85;2.85;;;;;;;24.20;nan;-24488.38;5075927;28;20169;-66
2022/05/14 10:58:36;;;;;;;4.75;2.90;;;;;;;23.93;nan;-24480.91;5071098;28;20186;-66
2022/05/14 11:01:05;;;;;;;8.75;3.10;;;;;;;24.23;nan;-24489.06;5070739;28;20567;-66
2022/05/14 11:03:36;;;;;;;3.28;2.47;;;;;;;23.87;nan;-24479.25;5071057;28;20181;-66
2022/05/14 11:06:01;;;;;;;5.00;3.08;;;;;;;24.17;nan;-24487.69;5071054;28;20216;-66
2022/05/14 11:08:35;;;;;;;3.95;3.03;;;;;;;24.16;nan;-24487.25;5071084;28;20653;-66
2022/05/14 11:11:25;;;;;;;4.82;3.05;;;;;;;24.34;nan;-24492.09;5070826;28;20181;-67
2022/05/14 11:14:08;;;;;;;6.30;3.47;;;;;;;23.69;nan;-24474.44;5064118;28;20198;-58
2022/05/14 11:16:51;;;;;;;4.40;3.47;;;;;;;23.66;nan;-24473.75;5069030;28;20228;-58
2022/05/14 11:19:30;;;;;;;4.72;3.35;;;;;;;23.69;nan;-24474.44;5070984;28;20181;-58
2022/05/14 11:21:56;;;;;;;4.50;3.42;;;;;;;23.44;nan;-24467.53;5072517;28;20185;-56
2022/05/14 11:24:38;;;;;;;5.32;3.65;;;;;;;23.40;nan;-24466.41;5079194;28;20176;-57
2022/05/14 11:27:04;;;;;;;5.07;3.45;;;;;;;23.59;nan;-24471.81;5063371;28;20182;-57
2022/05/14 11:29:35;;;;;;;5.93;3.58;;;;;;;23.23;nan;-24461.84;5070770;28;20185;-58
2022/05/14 11:32:08;;;;;;;4.40;3.55;;;;;;;23.69;nan;-24474.56;5072363;28;20170;-57
2022/05/14 11:34:34;;;;;;;5.47;3.53;;;;;;;23.67;nan;-24473.88;5074097;28;20260;-58
2022/05/14 11:37:04;;;;;;;5.72;3.90;;;;;;;23.12;nan;-24458.81;5073302;28;20212;-58
2022/05/14 11:39:36;;;;;;;5.47;4.10;;;;;;;22.71;nan;-24447.75;5072035;28;20645;-57
2022/05/14 11:42:25;;;;;;;4.40;3.28;;;;;;;23.04;nan;-24456.75;5074760;28;20567;-57
2022/05/14 11:45:09;;;;;;;6.75;3.65;;;;;;;22.83;nan;-24450.94;5076466;28;20698;-57
2022/05/14 11:48:01;;;;;;;5.72;4.22;;;;;;;23.11;nan;-24458.69;5071756;28;20177;-57
2022/05/14 11:50:35;;;;;;;5.55;4.07;;;;;;;23.13;nan;-24459.22;5048477;28;20622;-58
2022/05/14 11:53:05;;;;;;;6.05;4.20;;;;;;;23.30;nan;-24463.78;5075133;28;20205;-58
2022/05/14 11:55:54;;;;;;;7.68;4.40;;;;;;;23.69;nan;-24474.44;5077833;28;20218;-58
2022/05/14 11:58:27;;;;;;;6.90;4.47;;;;;;;23.78;nan;-24477.03;5078807;28;20200;-57
2022/05/14 12:00:55;;;;;;;7.50;4.53;;;;;;;23.83;nan;-24478.16;5073448;28;20178;-58
2022/05/14 12:03:29;;;;;;;5.95;4.30;;;;;;;24.06;nan;-24484.50;5072548;28;20198;-60
2022/05/14 12:05:58;;;;;;;6.18;4.20;;;;;;;24.33;nan;-24491.81;5076243;28;20166;-59